createdAt,value
2023-04-19T00:01:49.390Z,94577.78
2023-04-19T00:04:16.892Z,94568.97
2023-04-19T00:06:44.648Z,94572.22
2023-04-19T00:09:11.686Z,94568.47
2023-04-19T00:11:38.740Z,94562.31
2023-04-19T00:14:05.653Z,94565.19
2023-04-19T00:16:32.695Z,94553.34
2023-04-19T00:18:59.797Z,94569.72
2023-04-19T00:21:27.282Z,94564.88
2023-04-19T00:23:54.269Z,94564.56
2023-04-19T00:26:21.509Z,94560.31
2023-04-19T00:28:52.781Z,94562.22
2023-04-19T00:31:23.147Z,94559.84
2023-04-19T00:33:50.520Z,94557.69
2023-04-19T00:36:19.196Z,94448.00
2023-04-19T00:38:48.101Z,94557.69
2023-04-19T00:41:16.424Z,94540.06
2023-04-19T00:43:43.452Z,94556.19
2023-04-19T00:46:10.701Z,94534.47
2023-04-19T00:48:38.985Z,94548.38
2023-04-19T00:51:06.732Z,94556.72
2023-04-19T00:53:34.357Z,94554.63
2023-04-19T00:56:04.754Z,94544.53
2023-04-19T00:58:32.319Z,94545.97
2023-04-19T01:01:00.095Z,94546.50
2023-04-19T01:03:27.837Z,94544.09
2023-04-19T01:05:56.764Z,94522.03
2023-04-19T01:08:24.151Z,94536.00
2023-04-19T01:10:54.593Z,94506.63
2023-04-19T01:13:21.907Z,94520.53
2023-04-19T01:15:49.110Z,94527.22
2023-04-19T01:18:16.198Z,94531.31
2023-04-19T01:20:43.513Z,94533.81
2023-04-19T01:23:11.992Z,94519.66
2023-04-19T01:25:39.227Z,94540.56
2023-04-19T01:28:06.491Z,94533.31
2023-04-19T01:30:34.632Z,94533.56
2023-04-19T01:33:01.911Z,94520.69
2023-04-19T01:35:29.964Z,94521.75
2023-04-19T01:37:56.916Z,94542.41
2023-04-19T01:40:25.611Z,94532.81
2023-04-19T01:42:53.026Z,94520.78
2023-04-19T01:45:20.820Z,94530.66
2023-04-19T01:47:51.689Z,94528.72
2023-04-19T01:50:18.962Z,94533.75
2023-04-19T01:52:46.016Z,94537.22
2023-04-19T01:55:13.181Z,94525.38
2023-04-19T01:57:40.291Z,94508.25
2023-04-19T02:00:08.939Z,94531.63
2023-04-19T02:02:42.157Z,94522.53
2023-04-19T02:05:10.177Z,94526.50
2023-04-19T02:07:37.622Z,94528.84
2023-04-19T02:10:06.127Z,94527.00
2023-04-19T02:12:34.629Z,94437.63
2023-04-19T02:15:04.532Z,94529.59
2023-04-19T02:17:34.363Z,94532.75
2023-04-19T02:20:01.574Z,94527.69
2023-04-19T02:22:32.239Z,94521.16
2023-04-19T02:24:59.246Z,94525.72
2023-04-19T02:27:32.075Z,94522.50
2023-04-19T02:29:59.928Z,94508.13
2023-04-19T02:32:27.155Z,94514.75
2023-04-19T02:34:54.194Z,94503.69
2023-04-19T02:37:21.055Z,94514.16
2023-04-19T02:39:48.912Z,94525.94
2023-04-19T02:42:15.925Z,94515.31
2023-04-19T02:44:43.103Z,94506.09
2023-04-19T02:47:10.240Z,94507.69
2023-04-19T02:49:41.448Z,94521.13
2023-04-19T02:52:09.918Z,94513.53
2023-04-19T02:54:39.120Z,94522.22
2023-04-19T02:57:06.163Z,94508.63
2023-04-19T02:59:33.229Z,94516.75
2023-04-19T03:02:04.279Z,94523.22
2023-04-19T03:04:31.447Z,94517.94
2023-04-19T03:06:58.810Z,94517.72
2023-04-19T03:09:26.552Z,94518.59
2023-04-19T03:11:53.647Z,94519.16
2023-04-19T03:14:20.918Z,94516.63
2023-04-19T03:16:47.884Z,94514.97
2023-04-19T03:19:15.433Z,94510.75
2023-04-19T03:21:48.570Z,94516.34
2023-04-19T03:24:18.849Z,94516.28
2023-04-19T03:26:50.072Z,94509.59
2023-04-19T03:29:22.412Z,94512.91
2023-04-19T03:31:57.695Z,94509.38
2023-04-19T03:34:24.780Z,94493.81
2023-04-19T03:36:51.703Z,94527.28
2023-04-19T03:39:19.462Z,94523.38
2023-04-19T03:41:50.396Z,94454.38
2023-04-19T03:44:36.552Z,94519.41
2023-04-19T03:47:05.803Z,94522.41
2023-04-19T03:49:39.977Z,94519.25
2023-04-19T03:52:07.257Z,94519.81
2023-04-19T03:54:34.996Z,94515.53
2023-04-19T03:57:04.549Z,94490.66
2023-04-19T03:59:32.274Z,94517.22
2023-04-19T04:01:59.889Z,94515.38
2023-04-19T04:04:27.071Z,94513.84
2023-04-19T04:06:55.792Z,94512.00
2023-04-19T04:09:23.075Z,94514.09
2023-04-19T04:11:51.010Z,94504.13
2023-04-19T04:14:18.151Z,94516.81
2023-04-19T04:16:46.986Z,94516.75
2023-04-19T04:19:16.226Z,94494.59
2023-04-19T04:21:43.497Z,94527.53
2023-04-19T04:24:11.534Z,94520.13
2023-04-19T04:27:03.266Z,94527.66
2023-04-19T04:29:33.466Z,94528.28
2023-04-19T04:32:06.247Z,94542.41
2023-04-19T04:34:39.652Z,94462.81
2023-04-19T04:37:11.826Z,94529.03
2023-04-19T04:39:39.894Z,94544.47
2023-04-19T04:42:09.210Z,94536.34
2023-04-19T04:44:36.921Z,94537.06
2023-04-19T04:47:03.853Z,94530.28
2023-04-19T04:49:36.500Z,94537.31
2023-04-19T04:52:04.171Z,94529.81
2023-04-19T04:54:36.413Z,94536.44
2023-04-19T04:57:05.084Z,94525.41
2023-04-19T04:59:32.254Z,94537.03
2023-04-19T05:01:59.402Z,94534.19
2023-04-19T05:04:26.708Z,94535.97
2023-04-19T05:06:53.883Z,94535.16
2023-04-19T05:09:25.490Z,94527.59
2023-04-19T05:11:52.812Z,94534.63
2023-04-19T05:14:19.885Z,94539.38
2023-04-19T05:16:47.084Z,94534.22
2023-04-19T05:19:14.202Z,94544.88
2023-04-19T05:21:48.318Z,94542.38
2023-04-19T05:24:16.432Z,94534.63
2023-04-19T05:26:44.435Z,94537.03
2023-04-19T05:29:12.074Z,94544.53
2023-04-19T05:31:46.786Z,94544.19
2023-04-19T05:34:22.375Z,94543.22
2023-04-19T05:36:50.338Z,94537.53
2023-04-19T05:39:17.383Z,94545.97
2023-04-19T05:41:44.495Z,94533.78
2023-04-19T05:44:11.412Z,94529.59
2023-04-19T05:46:39.328Z,94553.72
2023-04-19T05:49:09.026Z,94557.38
2023-04-19T05:52:09.485Z,94539.03
2023-04-19T05:54:45.475Z,94551.00
2023-04-19T05:57:13.253Z,94552.72
2023-04-19T05:59:40.334Z,94550.19
2023-04-19T06:02:07.882Z,94546.00
2023-04-19T06:04:34.962Z,94539.34
2023-04-19T06:07:04.660Z,94555.22
2023-04-19T06:09:33.866Z,94558.38
2023-04-19T06:12:02.051Z,94550.63
2023-04-19T06:14:29.771Z,94556.66
2023-04-19T06:16:57.557Z,94546.91
2023-04-19T06:19:25.969Z,94553.16
2023-04-19T06:21:53.032Z,94556.13
2023-04-19T06:24:20.127Z,94555.88
2023-04-19T06:26:48.415Z,94540.13
2023-04-19T06:29:15.538Z,94567.94
2023-04-19T06:31:42.977Z,94543.88
2023-04-19T06:34:11.168Z,94546.28
2023-04-19T06:36:38.311Z,94556.97
2023-04-19T06:39:05.447Z,94547.28
2023-04-19T06:41:32.373Z,94561.25
2023-04-19T06:43:59.703Z,94558.25
2023-04-19T06:46:27.783Z,94550.50
2023-04-19T06:48:56.294Z,94563.84
2023-04-19T06:51:23.451Z,94558.22
2023-04-19T06:53:51.274Z,94556.38
2023-04-19T06:56:18.518Z,94575.88
2023-04-19T06:58:45.467Z,94572.97
2023-04-19T07:01:13.151Z,94577.56
2023-04-19T07:03:40.401Z,94564.66
2023-04-19T07:06:07.892Z,94568.47
2023-04-19T07:08:48.877Z,94566.59
2023-04-19T07:11:16.606Z,94576.44
2023-04-19T07:13:43.719Z,94578.59
2023-04-19T07:16:10.862Z,94564.19
2023-04-19T07:18:37.912Z,94578.94
2023-04-19T07:21:04.852Z,94570.59
2023-04-19T07:23:31.960Z,94578.31
2023-04-19T07:25:58.860Z,94578.91
2023-04-19T07:28:26.087Z,94566.03
2023-04-19T07:30:52.991Z,94584.28
2023-04-19T07:33:20.280Z,94588.28
2023-04-19T07:35:47.669Z,94582.44
2023-04-19T07:38:14.563Z,94588.56
2023-04-19T07:40:42.697Z,94570.13
2023-04-19T07:43:09.719Z,94575.19
2023-04-19T07:45:36.658Z,94574.88
2023-04-19T07:48:03.850Z,94586.41
2023-04-19T07:50:30.868Z,94579.44
2023-04-19T07:52:58.055Z,94582.88
2023-04-19T07:55:25.042Z,94576.06
2023-04-19T07:57:52.299Z,94580.72
2023-04-19T08:00:21.654Z,94589.59
2023-04-19T08:02:49.275Z,94578.81
2023-04-19T08:05:21.134Z,94580.59
2023-04-19T08:11:47.681Z,94567.81
2023-04-19T08:14:30.603Z,94584.72
2023-04-19T08:17:24.314Z,94582.69
2023-04-19T08:19:54.314Z,94565.16
2023-04-19T08:22:21.626Z,94582.94
2023-04-19T08:24:52.212Z,94579.25
2023-04-19T08:27:20.141Z,94566.66
2023-04-19T08:29:47.227Z,94572.44
2023-04-19T08:32:14.210Z,94564.94
2023-04-19T08:34:41.293Z,94582.16
2023-04-19T08:37:08.420Z,94567.41
2023-04-19T08:39:35.859Z,94570.53
2023-04-19T08:42:17.702Z,94570.09
2023-04-19T08:45:23.387Z,94571.75
2023-04-19T08:47:58.642Z,94554.19
2023-04-19T08:53:12.276Z,94551.16
2023-04-19T08:56:07.835Z,94563.38
2023-04-19T08:58:56.922Z,94561.56
2023-04-19T09:01:34.883Z,94549.00
2023-04-19T09:04:26.385Z,94559.28
2023-04-19T09:06:55.970Z,94560.50
2023-04-19T09:09:37.202Z,94537.56
2023-04-19T09:12:18.148Z,94545.38
2023-04-19T09:15:00.571Z,94565.34
2023-04-19T09:17:34.003Z,94538.09
2023-04-19T09:20:00.993Z,94549.03
2023-04-19T09:22:28.027Z,94508.81
2023-04-19T09:27:36.475Z,94540.34
2023-04-19T09:30:05.109Z,94550.28
2023-04-19T09:32:49.051Z,94545.75
2023-04-19T09:35:16.902Z,94528.16
2023-04-19T09:38:05.866Z,94542.09
2023-04-19T09:40:34.265Z,94531.41
2023-04-19T09:43:23.079Z,94544.53
2023-04-19T09:45:52.657Z,94529.63
2023-04-19T09:48:19.850Z,94533.38
2023-04-19T09:51:00.900Z,94524.00
2023-04-19T09:53:35.451Z,94514.69
2023-04-19T09:56:04.312Z,94517.00
2023-04-19T09:58:42.536Z,94513.50
2023-04-19T10:01:20.121Z,94513.94
2023-04-19T10:03:50.882Z,94518.03
2023-04-19T10:08:52.629Z,94503.13
2023-04-19T10:11:22.705Z,94509.88
2023-04-19T10:13:54.572Z,94502.63
2023-04-19T10:16:21.921Z,94512.72
2023-04-19T10:18:50.626Z,94489.44
2023-04-19T10:21:20.054Z,94500.44
2023-04-19T10:23:48.226Z,94508.28
2023-04-19T10:26:15.353Z,94508.38
2023-04-19T10:28:43.839Z,94509.97
2023-04-19T10:31:14.460Z,94501.44
2023-04-19T10:33:42.146Z,94495.19
2023-04-19T10:36:11.248Z,94493.03
2023-04-19T10:38:38.291Z,94502.13
2023-04-19T10:41:13.595Z,94354.09
2023-04-19T10:43:58.191Z,94493.59
2023-04-19T10:46:26.147Z,94485.53
2023-04-19T10:49:01.793Z,94479.75
2023-04-19T10:51:35.794Z,94469.44
2023-04-19T10:54:35.873Z,94481.56
2023-04-19T10:57:11.194Z,94485.53
2023-04-19T10:59:40.370Z,94475.31
2023-04-19T11:02:22.444Z,94468.31
2023-04-19T11:04:52.424Z,94464.56
2023-04-19T11:07:21.483Z,94475.50
2023-04-19T11:09:49.795Z,94468.31
2023-04-19T11:12:21.501Z,94465.28
2023-04-19T11:14:59.714Z,94465.50
2023-04-19T11:17:32.036Z,94460.13
2023-04-19T11:19:59.189Z,94468.66
2023-04-19T11:22:37.447Z,94476.72
2023-04-19T11:25:09.012Z,94462.38
2023-04-19T11:27:37.636Z,94436.72
2023-04-19T11:30:10.314Z,94471.31
2023-04-19T11:32:38.281Z,94458.53
2023-04-19T11:35:09.810Z,94470.09
2023-04-19T11:37:38.093Z,94451.09
2023-04-19T11:40:06.953Z,94457.81
2023-04-19T11:42:34.092Z,94456.53
2023-04-19T11:45:01.307Z,94458.44
2023-04-19T11:47:28.523Z,94445.88
2023-04-19T11:49:56.471Z,94447.59
2023-04-19T11:52:25.867Z,94436.22
2023-04-19T11:54:53.968Z,94446.28
2023-04-19T11:57:31.690Z,94437.22
2023-04-19T12:00:06.801Z,94422.53
2023-04-19T12:02:44.520Z,94421.63
2023-04-19T12:05:14.310Z,94432.72
2023-04-19T12:08:03.343Z,94428.22
2023-04-19T12:10:32.525Z,94422.63
2023-04-19T12:12:59.808Z,94418.53
2023-04-19T12:15:43.765Z,94422.22
2023-04-19T12:18:11.171Z,94413.41
2023-04-19T12:20:44.001Z,94414.81
2023-04-19T12:23:13.926Z,94405.03
2023-04-19T12:25:42.240Z,94415.50
2023-04-19T12:28:09.569Z,94409.19
2023-04-19T12:30:37.199Z,94414.69
2023-04-19T12:33:04.964Z,94416.28
2023-04-19T12:35:32.090Z,94413.09
2023-04-19T12:38:00.098Z,94411.56
2023-04-19T12:40:27.695Z,94394.84
2023-04-19T12:42:55.049Z,94400.25
2023-04-19T12:45:22.204Z,94403.03
2023-04-19T12:47:49.445Z,94415.50
2023-04-19T12:50:16.533Z,94412.56
2023-04-19T12:52:46.236Z,94406.84
2023-04-19T12:55:13.445Z,94399.38
2023-04-19T12:57:40.540Z,94409.88
2023-04-19T13:00:10.488Z,94408.69
2023-04-19T13:02:39.749Z,94433.59
2023-04-19T13:05:09.785Z,94441.72
2023-04-19T13:07:37.260Z,94438.56
2023-04-19T13:10:04.716Z,94453.56
2023-04-19T13:12:31.826Z,94449.44
2023-04-19T13:14:58.844Z,94456.50
2023-04-19T13:17:25.800Z,94456.66
2023-04-19T13:19:52.764Z,94465.78
2023-04-19T13:22:19.992Z,94462.44
2023-04-19T13:24:47.248Z,94470.47
2023-04-19T13:27:14.284Z,94467.00
2023-04-19T13:29:41.339Z,94470.03
2023-04-19T13:32:12.462Z,94453.25
2023-04-19T13:34:40.554Z,94437.81
2023-04-19T13:37:08.430Z,94449.56
2023-04-19T13:39:35.484Z,94422.31
2023-04-19T13:42:02.427Z,94444.81
2023-04-19T13:44:29.518Z,94448.47
2023-04-19T13:46:56.921Z,94448.88
2023-04-19T13:49:25.089Z,94461.81
2023-04-19T13:51:52.152Z,94450.25
2023-04-19T13:54:20.012Z,94453.97
2023-04-19T13:56:49.796Z,94428.78
2023-04-19T13:59:18.833Z,94431.81
2023-04-19T14:01:45.951Z,94452.41
2023-04-19T14:04:13.151Z,94432.78
2023-04-19T14:06:40.360Z,94442.06
2023-04-19T14:09:25.918Z,94446.31
2023-04-19T14:11:53.855Z,94434.13
2023-04-19T14:14:21.035Z,94436.69
2023-04-19T14:16:51.077Z,94442.19
2023-04-19T14:19:22.683Z,94436.28
2023-04-19T14:21:50.158Z,94442.16
2023-04-19T14:24:17.829Z,94435.78
2023-04-19T14:26:45.274Z,94444.88
2023-04-19T14:29:12.188Z,94443.03
2023-04-19T14:31:39.378Z,94438.81
2023-04-19T14:34:06.876Z,94438.69
2023-04-19T14:36:33.922Z,94434.31
2023-04-19T14:39:02.958Z,94437.78
2023-04-19T14:41:30.346Z,94437.28
2023-04-19T14:43:57.760Z,94437.03
2023-04-19T14:46:24.895Z,94417.63
2023-04-19T14:48:51.963Z,94440.47
2023-04-19T14:51:18.842Z,94439.41
2023-04-19T14:53:45.996Z,94404.09
2023-04-19T14:56:14.070Z,94448.56
2023-04-19T14:58:41.256Z,94450.88
2023-04-19T15:01:15.685Z,94444.28
2023-04-19T15:03:43.433Z,94430.34
2023-04-19T15:06:10.931Z,94461.47
2023-04-19T15:08:39.126Z,94445.72
2023-04-19T15:11:06.076Z,94442.75
2023-04-19T15:13:33.986Z,94384.50
2023-04-19T15:16:03.347Z,94446.69
2023-04-19T15:18:30.752Z,94445.94
2023-04-19T15:20:57.886Z,94450.81
2023-04-19T15:23:26.590Z,94460.03
2023-04-19T15:25:53.528Z,94453.31
2023-04-19T15:29:47.732Z,94460.19
2023-04-19T15:32:50.709Z,94454.44
2023-04-19T15:35:17.727Z,94458.78
2023-04-19T15:37:48.333Z,94444.03
2023-04-19T15:40:17.121Z,94472.53
2023-04-19T15:42:44.285Z,94476.13
2023-04-19T15:45:11.265Z,94476.03
2023-04-19T15:47:39.458Z,94468.97
2023-04-19T15:50:06.904Z,94481.56
2023-04-19T15:52:34.261Z,94481.97
2023-04-19T15:55:01.243Z,94475.06
2023-04-19T15:57:28.919Z,94439.47
2023-04-19T15:59:58.891Z,94460.88
2023-04-19T16:02:26.242Z,94462.84
2023-04-19T16:04:53.742Z,94465.28
2023-04-19T16:07:21.124Z,94473.16
2023-04-19T16:09:48.098Z,94470.44
2023-04-19T16:12:15.063Z,94471.00
2023-04-19T16:14:41.998Z,94474.13
2023-04-19T16:17:09.003Z,94471.91
2023-04-19T16:19:35.860Z,94475.22
2023-04-19T16:22:05.386Z,94468.44
2023-04-19T16:24:32.576Z,94475.91
2023-04-19T16:26:59.662Z,94479.69
2023-04-19T16:29:27.205Z,94491.69
2023-04-19T16:31:54.469Z,94406.25
2023-04-19T16:34:23.949Z,94495.31
2023-04-19T16:36:54.421Z,94470.38
2023-04-19T16:39:21.704Z,94500.69
2023-04-19T16:41:49.093Z,94493.88
2023-04-19T16:44:16.441Z,94505.63
2023-04-19T16:46:43.540Z,94501.00
2023-04-19T16:49:10.901Z,94487.00
2023-04-19T16:51:37.944Z,94487.94
2023-04-19T16:54:05.243Z,94492.25
2023-04-19T16:56:32.152Z,94497.69
2023-04-19T16:58:59.285Z,94408.28
2023-04-19T17:01:26.388Z,94504.03
2023-04-19T17:03:53.641Z,94492.09
2023-04-19T17:06:21.794Z,94505.53
2023-04-19T17:08:48.876Z,94505.56
2023-04-19T17:11:15.874Z,94519.31
2023-04-19T17:13:43.203Z,94496.09
2023-04-19T17:16:13.385Z,94521.00
2023-04-19T17:18:40.568Z,94531.25
2023-04-19T17:21:07.691Z,94522.94
2023-04-19T17:23:34.573Z,94528.34
2023-04-19T17:26:01.779Z,94539.06
2023-04-19T17:28:28.696Z,94384.63
2023-04-19T17:30:56.038Z,94549.22
2023-04-19T17:33:23.095Z,94547.38
2023-04-19T17:35:51.275Z,94546.03
2023-04-19T17:38:18.172Z,94550.56
2023-04-19T17:40:45.239Z,94558.34
2023-04-19T17:43:12.316Z,94558.06
2023-04-19T17:45:39.241Z,94573.84
2023-04-19T17:48:06.667Z,94561.00
2023-04-19T17:50:33.709Z,94578.13
2023-04-19T17:53:00.705Z,94547.06
2023-04-19T17:55:27.780Z,94585.63
2023-04-19T17:57:54.688Z,94584.56
2023-04-19T18:00:21.836Z,94591.78
2023-04-19T18:02:49.396Z,94590.44
2023-04-19T18:05:17.048Z,94598.19
2023-04-19T18:07:44.455Z,94595.78
2023-04-19T18:10:11.569Z,94584.53
2023-04-19T18:12:38.691Z,94601.13
2023-04-19T18:15:06.390Z,94597.06
2023-04-19T18:17:33.669Z,94601.88
2023-04-19T18:20:02.157Z,94603.50
2023-04-19T18:22:31.372Z,94586.34
2023-04-19T18:24:58.470Z,94601.88
2023-04-19T18:27:26.280Z,94615.81
2023-04-19T18:29:53.409Z,94603.16
2023-04-19T18:32:22.741Z,94621.13
2023-04-19T18:34:49.845Z,94615.25
2023-04-19T18:37:17.414Z,94619.56
2023-04-19T18:39:45.012Z,94613.38
2023-04-19T18:42:12.448Z,94625.97
2023-04-19T18:44:52.867Z,94631.63
2023-04-19T18:47:21.747Z,94633.75
2023-04-19T18:50:02.782Z,94636.97
2023-04-19T18:52:33.111Z,94645.50
2023-04-19T18:55:00.819Z,94622.53
2023-04-19T18:57:47.490Z,94637.25
2023-04-19T19:00:16.373Z,94642.84
2023-04-19T19:02:44.678Z,94647.13
2023-04-19T19:05:13.809Z,94652.19
2023-04-19T19:07:42.065Z,94656.47
2023-04-19T19:10:19.451Z,94635.78
2023-04-19T19:12:49.257Z,94665.53
2023-04-19T19:15:16.783Z,94664.94
2023-04-19T19:17:49.440Z,94661.94
2023-04-19T19:20:18.736Z,94669.84
2023-04-19T19:22:46.329Z,94662.09
2023-04-19T19:25:13.509Z,94667.88
2023-04-19T19:27:40.876Z,94667.59
2023-04-19T19:30:08.388Z,94666.78
2023-04-19T19:32:35.529Z,94663.56
2023-04-19T19:35:06.258Z,94668.09
2023-04-19T19:37:36.967Z,94669.06
2023-04-19T19:40:11.017Z,94665.50
2023-04-19T19:42:41.338Z,94671.41
2023-04-19T19:45:09.339Z,94657.00
2023-04-19T19:47:43.144Z,94643.53
2023-04-19T19:51:01.131Z,94667.72
2023-04-19T19:53:01.505Z,94671.78
2023-04-19T19:55:28.943Z,94660.59
2023-04-19T20:02:56.950Z,94649.66
2023-04-19T20:05:24.682Z,94661.22
2023-04-19T20:10:22.150Z,94660.94
2023-04-19T20:12:49.294Z,94645.41
2023-04-19T20:15:16.647Z,94672.22
2023-04-19T20:17:44.220Z,94663.59
2023-04-19T20:20:11.764Z,94667.09
2023-04-19T20:22:38.984Z,94669.75
2023-04-19T20:25:06.617Z,94666.72
2023-04-19T20:27:33.842Z,94670.72
2023-04-19T20:30:00.989Z,94672.53
2023-04-19T20:32:31.828Z,94672.44
2023-04-19T20:35:00.250Z,94665.16
2023-04-19T20:37:27.605Z,94657.56
2023-04-19T20:39:57.852Z,94657.50
2023-04-19T20:42:25.316Z,94664.44
2023-04-19T20:44:52.266Z,94663.38
2023-04-19T20:47:19.964Z,94664.38
2023-04-19T20:49:47.051Z,94657.69
2023-04-19T20:52:13.997Z,94657.97
2023-04-19T20:54:41.210Z,94652.56
2023-04-19T20:57:08.128Z,94649.84
2023-04-19T20:59:35.266Z,94655.91
2023-04-19T21:02:03.675Z,94656.16
2023-04-19T21:04:31.176Z,94648.91
2023-04-19T21:07:00.441Z,94660.13
2023-04-19T21:09:31.912Z,94651.03
2023-04-19T21:11:59.241Z,94646.34
2023-04-19T21:14:26.172Z,94645.13
2023-04-19T21:16:53.138Z,94649.13
2023-04-19T21:19:20.915Z,94646.84
2023-04-19T21:21:47.989Z,94665.06
2023-04-19T21:24:15.156Z,94664.47
2023-04-19T21:26:42.576Z,94658.09
2023-04-19T21:29:09.670Z,94659.84
2023-04-19T21:31:36.588Z,94655.31
2023-04-19T21:34:03.764Z,94667.31
2023-04-19T21:36:31.660Z,94665.06
2023-04-19T21:38:58.863Z,94665.06
2023-04-19T21:41:26.349Z,94668.28
2023-04-19T21:43:53.301Z,94670.28
2023-04-19T21:46:20.332Z,94666.56
2023-04-19T21:48:47.369Z,94673.69
2023-04-19T21:51:15.164Z,94666.56
2023-04-19T21:53:42.423Z,94671.66
2023-04-19T21:56:09.554Z,94655.75
2023-04-19T21:58:36.857Z,94680.16
2023-04-19T22:01:04.087Z,94664.63
2023-04-19T22:03:32.158Z,94523.38
2023-04-19T22:06:02.203Z,94668.78
2023-04-19T22:08:32.135Z,94662.63
2023-04-19T22:11:01.199Z,94672.81
2023-04-19T22:13:28.513Z,94671.75
2023-04-19T22:15:57.227Z,94673.06
2023-04-19T22:18:24.422Z,94662.09
2023-04-19T22:20:52.193Z,94657.28
2023-04-19T22:23:19.489Z,94668.09
2023-04-19T22:25:46.405Z,94660.28
2023-04-19T22:28:13.478Z,94662.94
2023-04-19T22:30:40.356Z,94666.75
2023-04-19T22:33:07.583Z,94636.47
2023-04-19T22:35:34.529Z,94659.72
2023-04-19T22:38:01.636Z,94659.16
2023-04-19T22:40:28.657Z,94663.00
2023-04-19T22:42:55.918Z,94656.94
2023-04-19T22:45:22.797Z,94627.56
2023-04-19T22:47:49.985Z,94659.13
2023-04-19T22:50:17.146Z,94651.03
2023-04-19T22:52:44.648Z,94663.69
2023-04-19T22:55:11.986Z,94658.91
2023-04-19T22:57:39.150Z,94660.44
2023-04-19T23:00:07.132Z,94656.97
2023-04-19T23:02:34.354Z,94651.38
2023-04-19T23:05:02.166Z,94638.53
2023-04-19T23:07:30.746Z,94654.84
2023-04-19T23:09:57.754Z,94648.97
2023-04-19T23:12:24.895Z,94649.22
2023-04-19T23:14:51.949Z,94642.31
2023-04-19T23:17:20.004Z,94639.31
2023-04-19T23:19:48.202Z,94638.78
2023-04-19T23:22:15.121Z,94652.50
2023-04-19T23:24:42.287Z,94637.69
2023-04-19T23:27:09.313Z,94635.84
2023-04-19T23:29:36.611Z,94639.19
2023-04-19T23:32:03.634Z,94635.69
2023-04-19T23:34:31.027Z,94633.84
2023-04-19T23:36:58.068Z,94634.06
2023-04-19T23:39:25.079Z,94639.19
2023-04-19T23:41:52.129Z,94609.69
2023-04-19T23:44:19.347Z,94630.09
2023-04-19T23:46:46.510Z,94626.38
2023-04-19T23:49:13.475Z,94623.16
2023-04-19T23:51:40.737Z,94620.50
2023-04-19T23:54:07.661Z,94623.41
2023-04-19T23:56:34.656Z,94616.75
2023-04-19T23:59:01.728Z,94608.19
